Time;durP1;ratioP1;P1;durP2;ratioP2;P2;SDS_P1;SDS_P2;PMS_P1;PMS_P2;Temp;Humidity;BMP_temperature;BMP_pressure;BME280_temperature;BME280_humidity;BME280_pressure;Samples;Min_cycle;Max_cycle;Signal;HPM_P1;HPM_P2
2022/07/09 00:00:15;;;;;;;10.25;4.68;;;;;;;19.35;100.00;102388.19;5049230;28;20059;-71
2022/07/09 00:02:41;;;;;;;12.77;5.07;;;;;;;19.37;100.00;102382.94;5051817;28;20054;-70
2022/07/09 00:05:08;;;;;;;11.77;5.13;;;;;;;19.35;100.00;102381.75;5052234;28;20047;-71
2022/07/09 00:07:42;;;;;;;11.60;4.75;;;;;;;19.35;100.00;102378.94;5045130;28;20090;-71
2022/07/09 00:10:10;;;;;;;10.75;4.63;;;;;;;19.31;100.00;102378.97;5037047;28;20044;-71
2022/07/09 00:12:37;;;;;;;10.52;4.95;;;;;;;19.26;100.00;102376.63;5048576;28;20048;-71
2022/07/09 00:15:04;;;;;;;10.10;4.72;;;;;;;19.25;100.00;102371.41;5040129;28;20572;-71
2022/07/09 00:17:31;;;;;;;11.10;5.10;;;;;;;19.23;100.00;102371.03;5050427;28;20969;-71
2022/07/09 00:19:57;;;;;;;9.82;4.75;;;;;;;19.18;100.00;102363.88;5049171;28;20051;-69
2022/07/09 00:22:24;;;;;;;9.77;4.90;;;;;;;19.11;100.00;102372.38;5050274;28;20045;-71
2022/07/09 00:24:51;;;;;;;9.00;4.60;;;;;;;19.05;100.00;102367.59;5046715;28;20048;-71
2022/07/09 00:27:17;;;;;;;8.88;4.90;;;;;;;18.99;100.00;102367.25;5040485;28;20142;-71
2022/07/09 00:29:44;;;;;;;14.32;5.15;;;;;;;19.02;100.00;102372.03;5050399;28;20049;-71
2022/07/09 00:32:10;;;;;;;11.77;5.13;;;;;;;18.99;100.00;102366.44;5043558;28;20052;-71
2022/07/09 00:34:37;;;;;;;12.63;5.15;;;;;;;18.90;100.00;102368.97;5046168;28;20049;-71
2022/07/09 00:37:04;;;;;;;11.45;5.05;;;;;;;18.84;100.00;102374.22;5050026;28;20056;-69
2022/07/09 00:39:30;;;;;;;10.20;5.00;;;;;;;18.75;100.00;102365.47;5051179;28;20058;-69
2022/07/09 00:42:09;;;;;;;13.95;5.55;;;;;;;18.72;100.00;102371.91;5052569;28;20056;-70
2022/07/09 00:44:37;;;;;;;12.27;4.90;;;;;;;18.75;100.00;102371.09;5048495;28;21018;-69
2022/07/09 00:47:06;;;;;;;12.55;5.55;;;;;;;18.77;100.00;102370.69;5050161;28;20655;-69
2022/07/09 00:49:37;;;;;;;11.68;5.47;;;;;;;18.77;100.00;102360.28;5043569;28;20148;-70
2022/07/09 00:52:05;;;;;;;12.00;5.30;;;;;;;18.73;100.00;102361.50;5049007;28;20056;-71
2022/07/09 00:54:34;;;;;;;11.02;5.05;;;;;;;18.68;100.00;102359.94;5049052;28;20664;-70
2022/07/09 00:57:01;;;;;;;14.55;5.60;;;;;;;18.65;100.00;102359.97;5062354;28;20724;-70
2022/07/09 00:59:28;;;;;;;11.82;5.65;;;;;;;18.59;100.00;102354.00;5044474;28;20166;-71
2022/07/09 01:01:54;;;;;;;13.45;5.88;;;;;;;18.62;100.00;102355.97;5040466;28;20058;-69
2022/07/09 01:04:21;;;;;;;15.60;6.50;;;;;;;18.64;100.00;102353.56;5049087;28;20767;-70
2022/07/09 01:06:48;;;;;;;13.88;5.80;;;;;;;18.59;100.00;102348.38;5052619;28;20052;-70
2022/07/09 01:09:14;;;;;;;14.45;6.97;;;;;;;18.62;100.00;102346.75;5053496;28;20060;-69
2022/07/09 01:11:41;;;;;;;11.63;6.03;;;;;;;18.56;100.00;102346.41;5043004;28;20056;-69
2022/07/09 01:14:07;;;;;;;16.95;5.20;;;;;;;18.54;100.00;102343.25;5053791;28;20587;-70
2022/07/09 01:16:37;;;;;;;12.45;4.82;;;;;;;18.56;100.00;102345.63;5044608;28;20104;-70
2022/07/09 01:19:04;;;;;;;10.45;4.82;;;;;;;18.56;100.00;102340.81;5049566;28;20854;-71
2022/07/09 01:21:30;;;;;;;11.07;5.03;;;;;;;18.51;100.00;102335.66;5046606;28;20052;-69
2022/07/09 01:23:57;;;;;;;9.60;4.85;;;;;;;18.49;100.00;102335.25;5051140;28;20045;-70
2022/07/09 01:26:24;;;;;;;10.68;4.97;;;;;;;18.48;100.00;102333.66;5048949;28;20044;-71
2022/07/09 01:28:51;;;;;;;12.20;5.40;;;;;;;18.46;100.00;102341.69;5048872;28;20836;-70
2022/07/09 01:31:18;;;;;;;12.43;5.25;;;;;;;18.43;100.00;102339.72;5049746;28;20159;-71
2022/07/09 01:33:45;;;;;;;10.85;5.43;;;;;;;18.44;100.00;102334.91;5047257;28;20055;-70
2022/07/09 01:36:12;;;;;;;12.27;5.22;;;;;;;18.43;100.00;102331.31;5051399;28;20125;-69
2022/07/09 01:38:38;;;;;;;11.73;5.05;;;;;;;18.43;100.00;102331.31;5050942;28;20369;-70
2022/07/09 01:41:05;;;;;;;13.68;4.70;;;;;;;18.38;100.00;102326.13;5048210;28;20494;-71
2022/07/09 01:43:33;;;;;;;12.05;5.78;;;;;;;18.37;100.00;102324.56;5044811;28;20131;-70
2022/07/09 01:46:00;;;;;;;10.82;5.20;;;;;;;18.34;100.00;102321.75;5050943;28;20099;-70
2022/07/09 01:48:30;;;;;;;11.88;4.75;;;;;;;18.30;100.00;102324.59;5045659;28;20055;-70
2022/07/09 01:50:58;;;;;;;12.75;4.82;;;;;;;18.29;100.00;102325.78;5046668;28;20206;-71
2022/07/09 01:53:25;;;;;;;12.88;5.53;;;;;;;18.27;100.00;102311.38;5041103;28;20068;-71
2022/07/09 01:55:51;;;;;;;10.73;5.32;;;;;;;18.26;100.00;102317.41;5043818;28;20056;-69
2022/07/09 01:58:18;;;;;;;13.73;5.75;;;;;;;18.23;100.00;102319.03;5061690;28;20048;-69
2022/07/09 02:00:45;;;;;;;13.43;6.53;;;;;;;18.21;100.00;102327.03;5064504;28;20052;-69
2022/07/09 02:03:11;;;;;;;10.50;5.53;;;;;;;18.19;100.00;102326.63;5056732;28;20076;-70
2022/07/09 02:05:38;;;;;;;13.68;7.28;;;;;;;18.20;100.00;102324.66;5062390;28;20205;-69
2022/07/09 02:08:05;;;;;;;13.48;6.00;;;;;;;18.19;100.00;102326.63;5059119;28;20052;-69
2022/07/09 02:10:31;;;;;;;13.43;5.95;;;;;;;18.14;100.00;102318.69;5057819;28;20420;-69
2022/07/09 02:12:58;;;;;;;10.88;5.63;;;;;;;18.11;100.00;102319.50;5051102;28;20049;-69
2022/07/09 02:15:24;;;;;;;14.00;6.07;;;;;;;17.99;100.00;102320.78;5061296;28;20502;-70
2022/07/09 02:17:51;;;;;;;11.23;5.85;;;;;;;17.87;100.00;102312.06;5054362;28;20132;-68
2022/07/09 02:20:17;;;;;;;17.55;7.07;;;;;;;17.81;100.00;102308.88;5060999;28;20051;-69
2022/07/09 02:22:44;;;;;;;16.48;7.18;;;;;;;17.77;100.00;102312.91;5057673;28;20640;-69
2022/07/09 02:25:10;;;;;;;16.15;7.30;;;;;;;17.73;100.00;102314.94;5059977;28;20044;-69
2022/07/09 02:27:37;;;;;;;14.15;7.20;;;;;;;17.71;100.00;102314.53;5060474;28;20767;-69
2022/07/09 02:30:04;;;;;;;15.30;7.10;;;;;;;17.66;100.00;102315.75;5054797;28;20140;-69
2022/07/09 02:32:31;;;;;;;15.75;7.18;;;;;;;17.63;100.00;102313.00;5062956;28;20118;-69
2022/07/09 02:34:57;;;;;;;11.88;6.40;;;;;;;17.67;100.00;102306.16;5065759;28;20152;-69
2022/07/09 02:37:24;;;;;;;13.48;6.45;;;;;;;17.72;100.00;102310.56;5057656;28;20048;-69
2022/07/09 02:39:51;;;;;;;14.60;6.68;;;;;;;17.72;100.00;102311.31;5060188;28;20153;-69
2022/07/09 02:42:17;;;;;;;13.20;6.85;;;;;;;17.64;100.00;102304.19;5060563;28;20692;-68
2022/07/09 02:44:44;;;;;;;15.60;8.00;;;;;;;17.67;100.00;102310.97;5064698;28;20055;-70
2022/07/09 02:47:10;;;;;;;12.65;6.68;;;;;;;17.70;100.00;102305.34;5063154;28;20131;-69
2022/07/09 02:49:37;;;;;;;12.55;6.95;;;;;;;17.75;100.00;102298.50;5064953;28;20112;-69
2022/07/09 02:52:04;;;;;;;16.17;8.32;;;;;;;17.83;100.00;102300.84;5060576;28;20527;-70
2022/07/09 02:54:31;;;;;;;13.38;6.20;;;;;;;17.87;100.00;102309.25;5061480;28;20603;-69
2022/07/09 02:56:58;;;;;;;12.82;6.05;;;;;;;17.87;100.00;102306.47;5055804;28;20144;-70
2022/07/09 02:59:24;;;;;;;14.25;6.55;;;;;;;17.89;100.00;102304.84;5060021;28;20105;-69
2022/07/09 03:01:51;;;;;;;14.27;6.88;;;;;;;17.90;100.00;102305.63;5054285;28;20084;-69
2022/07/09 03:04:17;;;;;;;14.45;6.45;;;;;;;17.90;100.00;102303.66;5058487;28;20048;-69
2022/07/09 03:06:44;;;;;;;12.88;6.90;;;;;;;17.86;100.00;102300.03;5059307;28;20171;-69
2022/07/09 03:09:11;;;;;;;17.90;7.45;;;;;;;17.87;100.00;102306.47;5065216;28;20131;-69
2022/07/09 03:11:37;;;;;;;13.65;7.10;;;;;;;17.83;100.00;102305.69;5055127;28;20135;-71
2022/07/09 03:14:04;;;;;;;13.63;6.30;;;;;;;17.81;100.00;102296.88;5057574;28;20135;-69
2022/07/09 03:16:30;;;;;;;14.60;6.40;;;;;;;17.84;100.00;102305.28;5054132;28;20164;-69
2022/07/09 03:18:57;;;;;;;15.15;6.93;;;;;;;17.81;100.00;102297.69;5048287;28;20048;-69
2022/07/09 03:21:23;;;;;;;15.07;6.88;;;;;;;17.77;100.00;102290.50;5054752;28;20550;-69
2022/07/09 03:23:50;;;;;;;14.52;6.93;;;;;;;17.71;100.00;102289.34;5056310;28;20361;-69
2022/07/09 03:26:16;;;;;;;15.38;6.32;;;;;;;17.61;100.00;102295.78;5057899;28;20040;-69
2022/07/09 03:28:43;;;;;;;15.40;6.40;;;;;;;17.56;100.00;102301.81;5055696;28;20135;-69
2022/07/09 03:31:09;;;;;;;14.52;7.05;;;;;;;17.57;100.00;102289.41;5057526;28;20052;-69
2022/07/09 03:33:36;;;;;;;12.35;6.10;;;;;;;17.53;100.00;102277.44;5057155;28;20083;-70
2022/07/09 03:36:03;;;;;;;22.77;7.50;;;;;;;17.64;100.00;102289.38;5060970;28;20079;-68
2022/07/09 03:38:30;;;;;;;20.48;7.10;;;;;;;17.71;100.00;102294.94;5050448;28;20542;-69
2022/07/09 03:40:57;;;;;;;16.60;8.52;;;;;;;17.71;100.00;102292.13;5057281;28;20049;-69
2022/07/09 03:43:23;;;;;;;15.77;7.45;;;;;;;17.75;100.00;102298.50;5065132;28;20514;-69
2022/07/09 03:45:50;;;;;;;13.77;7.70;;;;;;;17.81;100.00;102288.47;5064663;28;20144;-70
2022/07/09 03:48:17;;;;;;;15.40;7.95;;;;;;;17.77;100.00;102288.53;5063253;28;20497;-69
2022/07/09 03:50:43;;;;;;;17.02;8.38;;;;;;;17.76;100.00;102289.72;5058483;28;20044;-69
2022/07/09 03:53:10;;;;;;;12.35;7.38;;;;;;;17.76;100.00;102277.72;5061493;28;20049;-69
2022/07/09 03:55:36;;;;;;;15.23;8.02;;;;;;;17.78;100.00;102284.50;5066478;28;20130;-71
2022/07/09 03:58:03;;;;;;;18.30;8.02;;;;;;;17.75;100.00;102287.31;5057379;28;20053;-69
2022/07/09 04:00:30;;;;;;;16.20;7.90;;;;;;;17.76;100.00;102288.94;5055869;28;20071;-70
2022/07/09 04:02:57;;;;;;;16.40;8.25;;;;;;;17.84;100.00;102284.88;5057055;28;20052;-69
2022/07/09 04:05:23;;;;;;;16.27;8.93;;;;;;;17.87;100.00;102287.66;5063956;28;20055;-69
2022/07/09 04:07:50;;;;;;;18.13;8.88;;;;;;;17.82;100.00;102278.91;5054043;28;20041;-69
2022/07/09 04:10:16;;;;;;;20.00;8.45;;;;;;;17.76;100.00;102270.09;5063979;28;20108;-69
2022/07/09 04:12:43;;;;;;;17.33;8.15;;;;;;;17.74;100.00;102258.53;5065621;28;20604;-70
2022/07/09 04:15:10;;;;;;;20.48;8.55;;;;;;;17.80;100.00;102268.09;5063629;28;20051;-69
2022/07/09 04:17:37;;;;;;;18.80;8.68;;;;;;;17.90;100.00;102270.03;5059875;28;20603;-69
2022/07/09 04:20:04;;;;;;;19.05;8.88;;;;;;;18.02;100.00;102283.56;5061628;28;20345;-70
2022/07/09 04:22:30;;;;;;;14.65;8.18;;;;;;;18.14;100.00;102293.47;5061250;28;20099;-70
2022/07/09 04:24:57;;;;;;;17.65;7.65;;;;;;;18.24;100.00;102298.19;5056326;28;20103;-69
2022/07/09 04:27:24;;;;;;;17.00;8.10;;;;;;;18.33;100.00;102306.13;5052917;28;20619;-70
2022/07/09 04:29:50;;;;;;;18.38;8.35;;;;;;;18.39;100.00;102304.53;5064677;28;20159;-69
2022/07/09 04:32:19;;;;;;;20.38;10.70;;;;;;;18.41;100.00;102302.91;5055217;28;20659;-68
2022/07/09 04:34:45;;;;;;;17.05;8.30;;;;;;;18.31;100.00;102298.16;5054545;28;20052;-69
2022/07/09 04:37:12;;;;;;;19.73;9.38;;;;;;;18.21;100.00;102292.63;5064016;28;20052;-70
2022/07/09 04:39:39;;;;;;;19.48;7.82;;;;;;;18.22;100.00;102292.19;5061410;28;20455;-69
2022/07/09 04:42:05;;;;;;;16.38;8.73;;;;;;;18.17;100.00;102295.44;5056624;28;20052;-69
2022/07/09 04:44:32;;;;;;;16.17;8.00;;;;;;;18.15;100.00;102300.66;5061651;28;20131;-71
2022/07/09 04:46:58;;;;;;;17.33;8.93;;;;;;;18.16;100.00;102304.28;5057316;28;20136;-69
2022/07/09 04:49:25;;;;;;;15.60;8.48;;;;;;;18.17;100.00;102303.06;5062681;28;20135;-69
2022/07/09 04:51:51;;;;;;;19.23;8.95;;;;;;;18.19;100.00;102295.03;5061813;28;20638;-69
2022/07/09 04:54:18;;;;;;;21.80;9.57;;;;;;;18.26;100.00;102306.19;5061083;28;20047;-70
2022/07/09 04:56:44;;;;;;;19.40;9.35;;;;;;;18.32;100.00;102298.94;5062621;28;20056;-70
2022/07/09 04:59:11;;;;;;;17.67;9.20;;;;;;;18.41;100.00;102302.91;5057897;28;20054;-70
2022/07/09 05:01:37;;;;;;;18.85;9.52;;;;;;;18.50;100.00;102302.44;5061818;28;20055;-69
2022/07/09 05:04:04;;;;;;;18.27;8.48;;;;;;;18.53;100.00;102302.38;5064215;28;20064;-69
2022/07/09 05:06:31;;;;;;;19.73;8.68;;;;;;;18.57;100.00;102311.56;5055596;28;20087;-69
2022/07/09 05:08:57;;;;;;;22.67;8.63;;;;;;;18.63;100.00;102307.09;5058435;28;20162;-69
2022/07/09 05:11:25;;;;;;;18.58;9.18;;;;;;;18.64;100.00;102291.88;5072782;28;20094;-69
2022/07/09 05:13:51;;;;;;;20.27;8.25;;;;;;;18.71;100.00;102300.22;5060582;28;20136;-70
2022/07/09 05:16:18;;;;;;;18.33;8.00;;;;;;;18.80;100.00;102302.56;5064551;28;20151;-69
2022/07/09 05:18:45;;;;;;;16.58;7.70;;;;;;;18.83;100.00;102302.50;5066191;28;20147;-70
2022/07/09 05:21:11;;;;;;;18.30;8.27;;;;;;;18.94;100.00;102308.81;5059439;28;20137;-70
2022/07/09 05:23:38;;;;;;;20.33;8.75;;;;;;;19.00;100.00;102300.75;5057639;28;20056;-69
2022/07/09 05:26:04;;;;;;;14.05;6.35;;;;;;;18.96;100.00;102305.56;5058895;28;20535;-71
2022/07/09 05:28:31;;;;;;;20.45;7.32;;;;;;;19.02;100.00;102304.72;5057193;28;20063;-73
2022/07/09 05:30:59;;;;;;;16.25;7.22;;;;;;;19.11;100.00;102313.44;5053288;28;20048;-70
2022/07/09 05:33:47;;;;;;;15.35;7.25;;;;;;;19.20;100.00;102315.75;5055895;28;20416;-71
2022/07/09 05:36:17;;;;;;;16.10;7.25;;;;;;;19.15;100.00;102313.38;5066086;28;20044;-71
2022/07/09 05:38:44;;;;;;;14.02;6.93;;;;;;;19.12;100.00;102309.41;5062842;28;20059;-71
2022/07/09 05:41:11;;;;;;;18.35;7.85;;;;;;;19.22;100.00;102311.31;5058700;28;20044;-70
2022/07/09 05:43:37;;;;;;;17.55;7.35;;;;;;;19.25;100.00;102307.69;5063627;28;20048;-70
2022/07/09 05:46:04;;;;;;;15.18;7.03;;;;;;;19.25;100.00;102304.88;5065169;28;20079;-70
2022/07/09 05:48:31;;;;;;;18.25;7.82;;;;;;;19.32;100.00;102307.63;5065342;28;20056;-71
2022/07/09 05:50:58;;;;;;;14.55;6.68;;;;;;;19.32;100.00;102304.00;5066200;28;20056;-71
2022/07/09 05:53:24;;;;;;;15.38;6.88;;;;;;;19.30;100.00;102304.41;5061118;28;20053;-70
2022/07/09 05:55:51;;;;;;;16.27;7.35;;;;;;;19.33;100.00;102300.78;5066447;28;20394;-69
2022/07/09 05:58:17;;;;;;;16.98;7.47;;;;;;;19.37;100.00;102298.72;5065668;28;20515;-70
2022/07/09 06:00:44;;;;;;;18.15;7.68;;;;;;;19.44;100.00;102300.66;5065148;28;20082;-73
2022/07/09 06:03:11;;;;;;;20.85;9.38;;;;;;;19.40;100.00;102302.69;5061356;28;20128;-70
2022/07/09 06:05:37;;;;;;;16.73;8.77;;;;;;;19.35;100.00;102309.59;5058724;28;20060;-71
2022/07/09 06:08:04;;;;;;;18.17;8.15;;;;;;;19.31;100.00;102302.41;5064529;28;20063;-69
2022/07/09 06:10:30;;;;;;;23.63;9.68;;;;;;;19.41;100.00;102302.28;5064680;28;20052;-71
2022/07/09 06:12:57;;;;;;;18.38;9.35;;;;;;;19.50;100.00;102296.94;5060100;28;20052;-70
2022/07/09 06:15:23;;;;;;;22.90;9.75;;;;;;;19.57;100.00;102296.06;5067695;28;20420;-70
2022/07/09 06:17:50;;;;;;;18.88;9.43;;;;;;;19.67;100.00;102301.53;5062752;28;20056;-70
2022/07/09 06:20:17;;;;;;;20.73;8.23;;;;;;;19.79;100.00;102300.97;5061251;28;20099;-69
2022/07/09 06:22:44;;;;;;;14.45;7.07;;;;;;;19.93;100.00;102300.78;5062598;28;20056;-69
2022/07/09 06:25:10;;;;;;;13.05;6.13;;;;;;;20.05;100.00;102302.22;5061206;28;20047;-70
2022/07/09 06:27:37;;;;;;;15.23;6.20;;;;;;;20.16;100.00;102302.88;5051205;28;20131;-71
2022/07/09 06:30:04;;;;;;;15.18;6.05;;;;;;;20.07;100.00;102296.94;5059631;28;20135;-70
2022/07/09 06:32:31;;;;;;;12.43;4.97;;;;;;;20.06;100.00;102301.78;5054159;28;20090;-70
2022/07/09 06:34:57;;;;;;;9.40;4.47;;;;;;;19.91;100.00;102300.38;5064429;28;20049;-70
2022/07/09 06:37:24;;;;;;;8.88;4.38;;;;;;;19.93;100.00;102300.78;5065875;28;20083;-70
2022/07/09 06:39:51;;;;;;;11.30;4.88;;;;;;;19.95;100.00;102295.50;5061727;28;20143;-73
2022/07/09 06:42:18;;;;;;;11.35;4.88;;;;;;;20.07;100.00;102296.94;5063687;28;20072;-72
2022/07/09 06:44:44;;;;;;;9.43;4.40;;;;;;;20.01;100.00;102285.38;5062237;28;20143;-69
2022/07/09 06:47:12;;;;;;;12.52;4.53;;;;;;;20.09;100.00;102288.91;5061666;28;20131;-69
2022/07/09 06:49:39;;;;;;;8.93;3.60;;;;;;;19.99;100.00;102290.66;5054453;28;20669;-68
2022/07/09 06:52:06;;;;;;;9.80;4.15;;;;;;;20.02;100.00;102286.97;5057562;28;20151;-69
2022/07/09 06:54:33;;;;;;;9.88;3.80;;;;;;;20.18;100.00;102292.78;5057033;28;20498;-70
2022/07/09 06:57:01;;;;;;;10.85;4.13;;;;;;;20.29;100.00;102287.78;5055474;28;20051;-70
2022/07/09 06:59:32;;;;;;;10.93;3.65;;;;;;;20.29;100.00;102299.03;5058530;28;20057;-72
2022/07/09 07:01:58;;;;;;;11.15;4.10;;;;;;;20.39;100.00;102292.44;5061590;28;20148;-69
2022/07/09 07:04:25;;;;;;;7.22;2.92;;;;;;;20.43;100.00;102293.16;5056517;28;20041;-70
2022/07/09 07:06:52;;;;;;;9.50;3.47;;;;;;;20.61;100.00;102292.09;5060765;28;20056;-70
2022/07/09 07:09:21;;;;;;;7.22;2.97;;;;;;;20.81;100.00;102288.09;5059576;28;20049;-69
2022/07/09 07:11:50;;;;;;;8.93;3.28;;;;;;;21.00;100.00;102287.38;5060031;28;20049;-70
2022/07/09 07:14:17;;;;;;;11.35;3.30;;;;;;;21.20;100.00;102291.00;5050474;28;20053;-71
2022/07/09 07:16:44;;;;;;;6.45;3.25;;;;;;;21.40;100.00;102291.75;5063008;28;20048;-69
2022/07/09 07:19:11;;;;;;;8.98;3.35;;;;;;;21.52;100.00;102293.13;5060256;28;20121;-67
2022/07/09 07:21:38;;;;;;;4.82;2.65;;;;;;;21.63;100.00;102291.66;5071082;28;20085;-67
2022/07/09 07:24:06;;;;;;;6.25;2.65;;;;;;;21.55;98.82;102283.81;5062351;28;20151;-71
2022/07/09 07:26:34;;;;;;;5.70;2.40;;;;;;;21.52;99.36;102284.66;5063639;28;20055;-70
2022/07/09 07:29:01;;;;;;;6.43;2.45;;;;;;;21.62;99.54;102281.63;5067096;28;20075;-70
2022/07/09 07:31:27;;;;;;;6.60;2.67;;;;;;;21.56;97.23;102283.38;5061426;28;20127;-69
2022/07/09 07:33:54;;;;;;;5.63;2.63;;;;;;;21.59;98.37;102278.88;5065461;28;20139;-70
2022/07/09 07:36:21;;;;;;;11.45;3.20;;;;;;;21.79;97.86;102274.84;5067194;28;20044;-71
2022/07/09 07:38:48;;;;;;;9.30;3.15;;;;;;;21.91;98.62;102276.19;5065064;28;20181;-69
2022/07/09 07:41:16;;;;;;;8.68;3.13;;;;;;;21.65;97.87;102288.41;5061711;28;20148;-69
2022/07/09 07:43:44;;;;;;;7.82;3.47;;;;;;;21.86;97.93;102288.75;5060525;28;20048;-69
2022/07/09 07:46:11;;;;;;;5.15;2.55;;;;;;;21.77;94.30;102297.00;5069050;28;20139;-69
2022/07/09 07:48:40;;;;;;;4.20;1.67;;;;;;;22.00;92.28;102287.66;5066048;28;20059;-69
2022/07/09 07:51:08;;;;;;;4.93;1.40;;;;;;;22.19;89.96;102281.94;5056740;28;20049;-71
2022/07/09 07:53:35;;;;;;;4.05;1.58;;;;;;;22.25;85.56;102285.81;5061053;28;20056;-70
2022/07/09 07:56:06;;;;;;;1.55;1.20;;;;;;;22.44;83.83;102296.22;5059360;28;20037;-70
2022/07/09 07:58:33;;;;;;;4.45;1.50;;;;;;;22.62;81.95;102288.09;5062039;28;20172;-69
2022/07/09 08:01:00;;;;;;;5.13;1.73;;;;;;;22.77;81.00;102282.88;5054684;28;20163;-70
2022/07/09 08:03:27;;;;;;;5.35;1.80;;;;;;;22.92;81.20;102278.47;5055703;28;20052;-69
2022/07/09 08:05:58;;;;;;;3.88;1.50;;;;;;;22.85;78.07;102273.00;5062917;28;20586;-70
2022/07/09 08:08:25;;;;;;;4.18;1.80;;;;;;;23.09;80.53;102279.19;5054862;28;20092;-70
2022/07/09 08:10:52;;;;;;;3.83;1.70;;;;;;;23.15;77.62;102272.53;5054344;28;20136;-70
2022/07/09 08:13:19;;;;;;;5.72;2.00;;;;;;;23.24;78.79;102271.91;5050656;28;20141;-70
2022/07/09 08:15:45;;;;;;;2.35;1.48;;;;;;;23.32;77.99;102262.78;5050827;28;20123;-70
2022/07/09 08:18:13;;;;;;;2.85;1.63;;;;;;;23.47;77.41;102257.50;5056716;28;20048;-73
2022/07/09 08:20:41;;;;;;;2.28;1.23;;;;;;;23.57;75.91;102260.03;5056965;28;20111;-71
2022/07/09 08:23:08;;;;;;;4.15;1.98;;;;;;;23.46;73.42;102253.91;5051584;28;20412;-70
2022/07/09 08:25:35;;;;;;;2.78;1.38;;;;;;;23.59;75.76;102262.41;5054840;28;20062;-70
2022/07/09 08:28:02;;;;;;;3.45;1.13;;;;;;;23.49;71.52;102266.34;5066059;28;20476;-70
2022/07/09 08:30:29;;;;;;;7.35;2.10;;;;;;;23.54;75.02;102260.13;5050219;28;20084;-71
2022/07/09 08:32:56;;;;;;;4.25;1.60;;;;;;;23.62;73.91;102250.22;5056240;28;20110;-71
2022/07/09 08:35:25;;;;;;;6.05;1.70;;;;;;;23.82;73.93;102243.06;5054911;28;20093;-69
2022/07/09 08:37:52;;;;;;;5.80;1.80;;;;;;;23.80;72.98;102233.47;5053656;28;20147;-69
2022/07/09 08:40:20;;;;;;;4.63;2.10;;;;;;;24.13;72.88;102232.78;5055088;28;20049;-69
2022/07/09 08:42:49;;;;;;;4.22;2.83;;;;;;;24.30;71.54;102231.41;5062647;28;20052;-71
2022/07/09 08:45:17;;;;;;;7.25;1.83;;;;;;;24.46;69.54;102239.75;5054184;28;20139;-71
2022/07/09 08:47:43;;;;;;;5.80;1.52;;;;;;;24.54;69.62;102232.59;5058607;28;20056;-69
2022/07/09 08:50:11;;;;;;;6.20;1.73;;;;;;;24.35;69.10;102225.19;5053545;28;20056;-70
2022/07/09 08:52:39;;;;;;;4.00;2.22;;;;;;;24.43;67.77;102229.34;5056019;28;20059;-70
2022/07/09 08:55:07;;;;;;;5.68;1.80;;;;;;;24.44;67.63;102230.91;5055620;28;20505;-70
2022/07/09 08:57:34;;;;;;;6.68;2.20;;;;;;;24.49;68.35;102224.69;5058551;28;20079;-70
2022/07/09 09:00:04;;;;;;;5.18;2.30;;;;;;;24.21;67.97;102228.50;5053744;28;20052;-69
2022/07/09 09:02:38;;;;;;;7.93;2.30;;;;;;;24.44;69.14;102221.66;5048241;28;20044;-69
2022/07/09 09:05:13;;;;;;;4.82;1.90;;;;;;;24.16;68.67;102214.91;5054968;28;20044;-69
2022/07/09 09:07:41;;;;;;;8.80;2.10;;;;;;;24.24;70.00;102212.66;5049872;28;20779;-70
2022/07/09 09:10:08;;;;;;;4.15;1.83;;;;;;;24.12;67.92;102213.44;5049823;28;20052;-71
2022/07/09 09:12:35;;;;;;;7.45;2.10;;;;;;;24.07;69.11;102209.19;5052009;28;20048;-70
2022/07/09 09:15:06;;;;;;;4.85;2.25;;;;;;;24.28;68.83;102216.13;5053590;28;20044;-71
2022/07/09 09:17:33;;;;;;;5.53;1.77;;;;;;;24.20;65.47;102215.59;5052159;28;20053;-72
2022/07/09 09:20:10;;;;;;;5.53;1.90;;;;;;;23.99;66.03;102215.53;5055407;28;20052;-71
2022/07/09 09:22:47;;;;;;;2.83;1.27;;;;;;;23.73;67.90;102214.72;5052830;28;20484;-71
2022/07/09 09:25:19;;;;;;;6.93;2.03;;;;;;;23.74;67.65;102216.28;5049781;28;20053;-72
2022/07/09 09:27:53;;;;;;;3.65;1.50;;;;;;;23.86;66.28;102218.31;5048701;28;20045;-70
2022/07/09 09:30:20;;;;;;;3.23;0.90;;;;;;;23.56;66.55;102213.25;5048224;28;20143;-72
2022/07/09 09:33:01;;;;;;;7.47;2.15;;;;;;;23.78;67.32;102208.50;5046370;28;20063;-70
2022/07/09 09:35:32;;;;;;;3.08;1.50;;;;;;;23.74;66.19;102207.81;5034738;28;20107;-72
2022/07/09 09:37:59;;;;;;;6.40;1.83;;;;;;;23.95;66.68;102203.53;5038264;28;20436;-71
2022/07/09 09:40:27;;;;;;;8.02;1.73;;;;;;;24.13;66.90;102203.75;5039763;28;20060;-73
2022/07/09 09:42:54;;;;;;;5.50;1.90;;;;;;;24.31;66.31;102196.22;5041480;28;20056;-71
2022/07/09 09:45:23;;;;;;;5.82;1.90;;;;;;;24.29;66.25;102193.06;5038499;28;20428;-71
2022/07/09 09:47:51;;;;;;;5.88;2.30;;;;;;;24.45;67.64;102198.56;5038152;28;20059;-72
2022/07/09 09:50:20;;;;;;;5.03;1.65;;;;;;;24.29;65.84;102195.09;5038991;28;20048;-71
2022/07/09 09:52:49;;;;;;;7.13;2.42;;;;;;;24.47;66.11;102198.09;5042020;28;20044;-71
2022/07/09 09:55:18;;;;;;;4.63;2.20;;;;;;;24.61;64.98;102201.19;5035205;28;20082;-73
2022/07/09 09:57:45;;;;;;;3.90;2.28;;;;;;;24.74;64.69;102195.53;5036195;28;20044;-73
2022/07/09 10:00:13;;;;;;;3.30;2.17;;;;;;;24.85;63.22;102193.91;5047725;28;20052;-72
2022/07/09 10:02:43;;;;;;;5.00;2.10;;;;;;;24.88;62.66;102195.78;5043436;28;20064;-71
2022/07/09 10:05:10;;;;;;;6.32;2.08;;;;;;;24.99;63.99;102196.19;5040390;28;20052;-71
2022/07/09 10:07:39;;;;;;;7.50;2.10;;;;;;;24.75;60.82;102197.13;5039234;28;20049;-73
2022/07/09 10:10:06;;;;;;;2.58;1.30;;;;;;;24.63;60.29;102201.56;5042532;28;20760;-72
2022/07/09 10:12:40;;;;;;;1.50;0.88;;;;;;;24.36;62.20;102187.16;5042090;28;20051;-71
2022/07/09 10:15:26;;;;;;;3.72;1.55;;;;;;;24.24;63.81;102190.03;5056078;28;20052;-71
2022/07/09 10:17:53;;;;;;;5.03;1.80;;;;;;;24.44;63.39;102187.69;5037905;28;20044;-70
2022/07/09 10:20:33;;;;;;;4.57;1.85;;;;;;;24.61;62.51;102183.44;5041937;28;20930;-71
2022/07/09 10:23:00;;;;;;;6.70;2.00;;;;;;;24.79;62.44;102194.94;5042790;28;20056;-72
2022/07/09 10:25:41;;;;;;;6.82;2.08;;;;;;;24.88;61.07;102187.28;5038618;28;20049;-72
2022/07/09 10:28:18;;;;;;;5.30;2.17;;;;;;;24.88;60.87;102180.84;5046362;28;20051;-73
2022/07/09 10:30:46;;;;;;;6.50;2.42;;;;;;;24.73;62.89;102180.59;5043429;28;20843;-70
2022/07/09 10:33:14;;;;;;;5.57;1.92;;;;;;;24.47;63.11;102183.97;5049875;28;20045;-74
2022/07/09 10:35:43;;;;;;;5.15;1.98;;;;;;;24.72;63.34;102181.84;5050935;28;20048;-71
2022/07/09 10:38:11;;;;;;;6.72;3.25;;;;;;;24.81;63.75;102187.56;5050739;28;20049;-72
2022/07/09 10:40:43;;;;;;;6.00;2.25;;;;;;;24.72;62.13;102181.03;5051999;28;20048;-72
2022/07/09 10:43:11;;;;;;;5.22;1.92;;;;;;;24.85;62.86;102181.78;5050554;28;20044;-69
2022/07/09 10:45:44;;;;;;;3.67;1.98;;;;;;;25.06;61.65;102183.81;5048420;28;20511;-73
2022/07/09 10:48:13;;;;;;;5.85;1.85;;;;;;;25.38;60.69;102174.91;5048459;28;20044;-70
2022/07/09 10:50:41;;;;;;;7.53;1.95;;;;;;;25.63;59.43;102171.06;5052278;28;20049;-72
2022/07/09 10:53:09;;;;;;;2.97;1.52;;;;;;;25.37;58.75;102176.13;5048963;28;20155;-71
2022/07/09 10:55:36;;;;;;;4.30;1.60;;;;;;;25.47;58.15;102163.59;5052957;28;20048;-70
2022/07/09 10:58:07;;;;;;;6.20;1.98;;;;;;;25.77;58.44;102159.13;5056163;28;20051;-74
2022/07/09 11:00:35;;;;;;;8.95;2.33;;;;;;;26.19;57.32;102151.69;5055067;28;20532;-72
2022/07/09 11:03:04;;;;;;;6.07;2.10;;;;;;;26.60;55.52;102162.44;5041654;28;20156;-74
2022/07/09 11:05:33;;;;;;;3.78;2.03;;;;;;;26.90;53.66;102156.59;5049969;28;20055;-74
2022/07/09 11:08:07;;;;;;;2.95;1.25;;;;;;;26.40;53.04;102157.25;5050111;28;20048;-71
2022/07/09 11:10:42;;;;;;;5.35;1.55;;;;;;;26.35;53.27;102149.34;5045190;28;20794;-69
2022/07/09 11:13:16;;;;;;;5.05;1.95;;;;;;;26.60;54.10;102142.56;5047292;28;20049;-70
2022/07/09 11:15:43;;;;;;;3.08;1.50;;;;;;;26.19;53.99;102146.78;5049522;28;20072;-70